createdAt,value
2023-01-03T00:04:52.824Z,10.80
2023-01-03T00:09:54.939Z,10.80
2023-01-03T00:14:57.929Z,10.80
2023-01-03T00:20:00.461Z,10.70
2023-01-03T00:25:03.416Z,10.80
2023-01-03T00:30:06.151Z,10.70
2023-01-03T00:35:08.920Z,10.90
2023-01-03T00:40:11.508Z,10.80
2023-01-03T00:45:19.235Z,10.70
2023-01-03T00:50:22.172Z,10.80
2023-01-03T00:55:24.353Z,10.90
2023-01-03T01:00:26.484Z,10.90
2023-01-03T01:05:31.869Z,10.90
2023-01-03T01:10:34.308Z,11.00
2023-01-03T01:15:39.075Z,11.00
2023-01-03T01:20:41.249Z,10.90
2023-01-03T01:25:44.057Z,10.90
2023-01-03T01:30:47.433Z,10.90
2023-01-03T01:35:49.711Z,10.80
2023-01-03T01:40:55.387Z,10.80
2023-01-03T01:45:58.658Z,10.80
2023-01-03T01:51:00.822Z,10.80
2023-01-03T01:56:19.422Z,10.80
2023-01-03T02:01:24.354Z,10.70
2023-01-03T02:06:27.440Z,10.70
2023-01-03T02:11:44.811Z,10.80
2023-01-03T02:17:16.101Z,10.70
2023-01-03T02:22:41.352Z,10.60
2023-01-03T02:28:07.608Z,10.60
2023-01-03T02:33:18.735Z,10.60
2023-01-03T02:43:41.115Z,10.50
2023-01-03T02:48:58.285Z,10.40
2023-01-03T02:54:03.754Z,10.30
2023-01-03T02:59:12.141Z,10.20
2023-01-03T03:04:15.294Z,10.00
2023-01-03T03:09:20.838Z,10.00
2023-01-03T03:14:40.655Z,9.80
2023-01-03T03:20:06.206Z,9.70
2023-01-03T03:25:16.301Z,9.70
2023-01-03T03:30:22.278Z,9.70
2023-01-03T03:35:26.248Z,9.70
2023-01-03T03:40:50.548Z,9.50
2023-01-03T03:46:14.800Z,9.40
2023-01-03T03:51:19.943Z,9.30
2023-01-03T03:56:28.251Z,9.30
2023-01-03T04:01:31.763Z,9.30
2023-01-03T04:06:38.876Z,9.20
2023-01-03T04:11:41.273Z,9.20
2023-01-03T04:16:43.389Z,9.10
2023-01-03T04:21:45.589Z,9.20
2023-01-03T04:26:48.594Z,9.10
2023-01-03T04:31:50.836Z,9.10
2023-01-03T04:36:53.008Z,9.00
2023-01-03T04:41:55.084Z,8.90
2023-01-03T04:46:57.196Z,8.70
2023-01-03T04:51:59.282Z,8.50
2023-01-03T05:02:06.235Z,8.50
2023-01-03T05:07:08.591Z,8.50
2023-01-03T05:17:14.193Z,8.70
2023-01-03T05:22:34.783Z,8.70
2023-01-03T05:27:36.909Z,8.90
2023-01-03T05:32:39.004Z,9.00
2023-01-03T05:37:42.493Z,9.10
2023-01-03T05:42:44.588Z,9.10
2023-01-03T05:47:46.689Z,9.10
2023-01-03T05:52:49.232Z,9.00
2023-01-03T05:57:52.087Z,8.80
2023-01-03T06:02:54.367Z,8.60
2023-01-03T06:07:59.256Z,8.40
2023-01-03T06:18:04.158Z,8.30
2023-01-03T06:23:06.333Z,8.10
2023-01-03T06:28:08.453Z,8.20
2023-01-03T06:33:14.147Z,8.20
2023-01-03T06:38:16.549Z,8.30
2023-01-03T06:48:42.978Z,8.40
2023-01-03T06:53:45.247Z,8.40
2023-01-03T06:58:51.255Z,8.50
2023-01-03T07:03:53.444Z,8.50
2023-01-03T07:08:56.183Z,8.60
2023-01-03T07:13:58.561Z,8.70
2023-01-03T07:19:01.508Z,8.80
2023-01-03T07:24:05.890Z,8.70
2023-01-03T07:29:09.990Z,8.80
2023-01-03T07:34:12.129Z,9.00
2023-01-03T07:39:14.373Z,8.90
2023-01-03T07:44:16.758Z,9.00
2023-01-03T07:49:18.983Z,9.10
2023-01-03T07:54:21.255Z,9.10
2023-01-03T07:59:23.333Z,9.20
2023-01-03T08:04:25.468Z,9.20
2023-01-03T08:09:46.589Z,9.30
2023-01-03T08:14:51.881Z,9.40
2023-01-03T08:19:53.933Z,9.40
2023-01-03T08:29:58.556Z,9.40
2023-01-03T08:35:03.452Z,9.40
2023-01-03T08:40:06.364Z,9.60
2023-01-03T08:45:11.893Z,9.40
2023-01-03T08:50:14.638Z,9.30
2023-01-03T08:55:16.885Z,9.30
2023-01-03T09:00:19.528Z,9.30
2023-01-03T09:05:21.708Z,9.40
2023-01-03T09:10:24.564Z,9.50
2023-01-03T09:15:26.825Z,9.70
2023-01-03T09:20:28.910Z,9.80
2023-01-03T09:25:36.733Z,9.90
2023-01-03T09:30:42.694Z,10.00
2023-01-03T09:40:56.197Z,10.50
2023-01-03T09:46:03.566Z,10.80
2023-01-03T09:51:30.527Z,11.10
2023-01-03T09:56:52.115Z,11.30
2023-01-03T10:02:40.891Z,11.50
2023-01-03T10:08:13.530Z,11.70
2023-01-03T10:13:35.875Z,11.80
2023-01-03T10:19:15.609Z,12.10
2023-01-03T10:24:26.177Z,12.20
2023-01-03T10:34:30.893Z,12.70
2023-01-03T10:39:33.346Z,12.90
2023-01-03T10:44:35.468Z,13.10
2023-01-03T10:49:37.604Z,13.30
2023-01-03T10:55:03.942Z,13.40
2023-01-03T11:00:29.477Z,13.40
2023-01-03T11:05:33.745Z,13.50
2023-01-03T11:10:56.668Z,13.70
2023-01-03T11:16:01.786Z,13.70
2023-01-03T11:21:17.758Z,14.00
2023-01-03T11:26:52.710Z,14.00
2023-01-03T11:32:28.028Z,14.10
2023-01-03T11:37:42.084Z,14.10
2023-01-03T11:43:01.016Z,14.10
2023-01-03T11:48:21.282Z,14.10
2023-01-03T11:54:00.998Z,14.10
2023-01-03T12:04:26.691Z,14.20
2023-01-03T12:09:42.657Z,14.30
2023-01-03T12:14:48.545Z,14.30
2023-01-03T12:20:21.476Z,14.40
2023-01-03T12:25:38.016Z,14.50
2023-01-03T12:30:40.138Z,14.60
2023-01-03T12:35:56.251Z,14.70
2023-01-03T12:41:06.009Z,14.80
2023-01-03T12:46:19.467Z,14.70
2023-01-03T12:51:24.789Z,14.90
2023-01-03T12:57:00.285Z,14.90
2023-01-03T13:02:24.629Z,14.80
2023-01-03T13:07:32.124Z,15.00
2023-01-03T13:12:38.330Z,14.80
2023-01-03T13:17:46.662Z,14.90
2023-01-03T13:22:50.683Z,14.80
2023-01-03T13:27:55.983Z,14.80
2023-01-03T13:33:16.871Z,14.80
2023-01-03T13:38:28.723Z,14.80
2023-01-03T13:43:39.951Z,14.70
2023-01-03T13:48:56.492Z,14.70
2023-01-03T13:54:09.400Z,14.70
2023-01-03T14:05:10.982Z,14.70
2023-01-03T14:11:07.338Z,14.80
2023-01-03T14:16:29.144Z,14.80
2023-01-03T14:21:44.956Z,14.80
2023-01-03T14:26:48.245Z,14.80
2023-01-03T14:31:55.610Z,14.70
2023-01-03T14:37:03.775Z,14.70
2023-01-03T14:42:07.661Z,14.60
2023-01-03T14:47:17.827Z,14.70
2023-01-03T14:52:52.902Z,14.50
2023-01-03T15:02:58.606Z,14.30
2023-01-03T15:08:15.788Z,14.30
2023-01-03T15:13:33.837Z,14.20
2023-01-03T15:18:39.805Z,14.10
2023-01-03T15:23:48.027Z,13.90
2023-01-03T15:28:54.636Z,13.70
2023-01-03T15:34:21.432Z,13.60
2023-01-03T15:39:26.216Z,13.40
2023-01-03T15:44:28.676Z,13.00
2023-01-03T15:49:34.876Z,13.10
2023-01-03T15:54:37.041Z,12.90
2023-01-03T15:59:43.530Z,12.60
2023-01-03T16:04:47.829Z,12.40
2023-01-03T16:14:54.414Z,11.90
2023-01-03T16:19:58.731Z,11.90
2023-01-03T16:25:00.996Z,11.70
2023-01-03T16:30:03.810Z,11.50
2023-01-03T16:35:17.864Z,11.20
2023-01-03T16:40:21.306Z,11.10
2023-01-03T16:45:23.398Z,10.90
2023-01-03T16:50:25.809Z,10.80
2023-01-03T16:55:41.020Z,10.90
2023-01-03T17:00:44.162Z,10.60
2023-01-03T17:05:47.810Z,10.50
2023-01-03T17:10:53.232Z,10.40
2023-01-03T17:15:56.700Z,10.40
2023-01-03T17:21:02.878Z,10.30
2023-01-03T17:26:05.446Z,10.40
2023-01-03T17:31:08.989Z,10.50
2023-01-03T17:36:16.356Z,10.60
2023-01-03T17:41:25.042Z,10.70
2023-01-03T17:46:47.197Z,10.70
2023-01-03T17:51:55.273Z,10.70
2023-01-03T17:56:59.202Z,10.70
2023-01-03T18:02:02.701Z,10.70
2023-01-03T18:07:05.076Z,10.70
2023-01-03T18:12:13.251Z,10.70
2023-01-03T18:17:30.178Z,10.60
2023-01-03T18:27:35.009Z,10.40
2023-01-03T18:37:39.902Z,10.20
2023-01-03T18:43:00.477Z,10.20
2023-01-03T18:48:03.380Z,10.10
2023-01-03T18:53:05.538Z,10.10
2023-01-03T18:58:35.525Z,10.10
2023-01-03T19:03:41.659Z,10.00
2023-01-03T19:08:43.986Z,9.90
2023-01-03T19:13:54.871Z,9.70
2023-01-03T19:24:07.320Z,9.30
2023-01-03T19:29:21.991Z,9.20
2023-01-03T19:34:26.266Z,9.20
2023-01-03T19:39:33.654Z,9.10
2023-01-03T19:44:39.810Z,9.00
2023-01-03T19:49:49.161Z,9.10
2023-01-03T19:54:51.318Z,8.90
2023-01-03T19:59:56.539Z,8.80
2023-01-03T20:04:59.643Z,8.70
2023-01-03T20:10:02.978Z,8.70
2023-01-03T20:15:07.560Z,8.50
2023-01-03T20:20:11.990Z,8.50
2023-01-03T20:25:26.856Z,8.40
2023-01-03T20:30:32.230Z,8.30
2023-01-03T20:40:57.569Z,8.10
2023-01-03T20:45:59.753Z,8.00
2023-01-03T20:51:02.073Z,8.00
2023-01-03T20:56:13.512Z,7.90
2023-01-03T21:01:15.719Z,7.80
2023-01-03T21:06:19.445Z,7.80
2023-01-03T21:11:41.788Z,7.70
2023-01-03T21:16:48.538Z,7.70
2023-01-03T21:21:53.390Z,7.80
2023-01-03T21:26:55.564Z,8.10
2023-01-03T21:31:58.966Z,8.30
2023-01-03T21:37:01.458Z,8.30
2023-01-03T21:42:22.789Z,8.50
2023-01-03T21:47:24.895Z,8.60
2023-01-03T21:52:26.966Z,8.70
2023-01-03T21:57:29.836Z,8.30
2023-01-03T22:02:54.766Z,8.70
2023-01-03T22:08:03.727Z,8.70
2023-01-03T22:13:08.171Z,8.80
2023-01-03T22:28:24.579Z,8.80
2023-01-03T22:33:26.642Z,8.80
2023-01-03T22:38:28.794Z,8.80
2023-01-03T22:43:31.016Z,8.70
2023-01-03T22:48:33.766Z,8.80
2023-01-03T22:53:37.607Z,8.70
2023-01-03T23:03:43.846Z,8.70
2023-01-03T23:08:51.398Z,8.70
2023-01-03T23:13:53.733Z,8.60
2023-01-03T23:18:55.855Z,8.60
2023-01-03T23:23:58.224Z,8.50
2023-01-03T23:29:01.038Z,8.40
2023-01-03T23:34:03.435Z,8.30
2023-01-03T23:44:08.320Z,8.30
2023-01-03T23:49:12.530Z,8.20
2023-01-03T23:54:14.707Z,8.10
2023-01-03T23:59:19.017Z,8.10
